Time;durP1;ratioP1;P1;durP2;ratioP2;P2;SDS_P1;SDS_P2;PMS_P1;PMS_P2;Temp;Humidity;BMP_temperature;BMP_pressure;BME280_temperature;BME280_humidity;BME280_pressure;Samples;Min_cycle;Max_cycle;Signal;HPM_P1;HPM_P2
2023/10/15 00:02:27;;;;;;;17.15;5.32;;;;;;;;;;6245633;28;20049;-64
2023/10/15 00:05:28;;;;;;;13.88;4.95;;;;;;;;;;6247136;28;20068;-63
2023/10/15 00:08:28;;;;;;;12.45;5.28;;;;;;;;;;6245936;28;20432;-64
2023/10/15 00:11:30;;;;;;;12.25;5.00;;;;;;;;;;6245724;28;20068;-63
2023/10/15 00:14:31;;;;;;;15.52;5.82;;;;;;;;;;6245323;28;20464;-63
2023/10/15 00:17:31;;;;;;;14.52;4.65;;;;;;;;;;6245962;28;20103;-65
2023/10/15 00:20:35;;;;;;;17.75;5.43;;;;;;;;;;6227553;28;20065;-64
2023/10/15 00:23:36;;;;;;;14.15;5.38;;;;;;;;;;6244498;28;20056;-63
2023/10/15 00:26:38;;;;;;;;;;;;;;;;;;6246381;28;20033;-63
2023/10/15 00:29:39;;;;;;;12.77;4.67;;;;;;;;;;6246318;28;19928;-64
2023/10/15 00:32:44;;;;;;;13.90;5.10;;;;;;;;;;6243814;28;20305;-63
2023/10/15 00:35:44;;;;;;;12.20;4.85;;;;;;;;;;6245013;28;20049;-64
2023/10/15 00:38:45;;;;;;;11.95;4.63;;;;;;;;;;6244665;28;20064;-64
2023/10/15 00:41:47;;;;;;;10.70;4.20;;;;;;;;;;6242316;28;20073;-64
2023/10/15 00:44:48;;;;;;;13.43;4.47;;;;;;;;;;6243812;28;20051;-63
2023/10/15 00:48:07;;;;;;;16.27;5.35;;;;;;;;;;6245108;28;20041;-64
2023/10/15 00:51:11;;;;;;;14.20;4.68;;;;;;;;;;6248376;28;20154;-64
2023/10/15 00:54:15;;;;;;;13.25;4.40;;;;;;;;;;6253274;28;20080;-63
2023/10/15 00:57:54;;;;;;;15.25;4.60;;;;;;;;;;6246201;28;20049;-63
2023/10/15 01:00:53;;;;;;;16.17;3.92;;;;;;;;;;6241087;28;20078;-63
2023/10/15 01:03:59;;;;;;;16.15;4.60;;;;;;;;;;6245133;28;20107;-65
2023/10/15 01:07:00;;;;;;;13.13;4.65;;;;;;;;;;6242791;28;20037;-63
2023/10/15 01:10:01;;;;;;;16.02;4.15;;;;;;;;;;6245194;28;20067;-64
2023/10/15 01:13:10;;;;;;;12.48;3.75;;;;;;;;;;6244727;28;20049;-64
2023/10/15 01:16:13;;;;;;;12.30;4.07;;;;;;;;;;6243341;28;20052;-63
2023/10/15 01:22:18;;;;;;;18.42;4.15;;;;;;;;;;6243756;28;20523;-64
2023/10/15 01:25:24;;;;;;;16.48;4.10;;;;;;;;;;6241260;28;20104;-61
2023/10/15 01:28:48;;;;;;;15.25;4.05;;;;;;;;;;6244400;28;20143;-63
2023/10/15 01:31:51;;;;;;;14.35;4.28;;;;;;;;;;6244111;28;20192;-64
2023/10/15 01:34:53;;;;;;;13.65;5.18;;;;;;;;;;6243882;28;20396;-65
2023/10/15 01:38:09;;;;;;;17.00;4.35;;;;;;;;;;6243213;28;20503;-65
2023/10/15 01:41:16;;;;;;;11.70;3.55;;;;;;;;;;6242529;28;20045;-63
2023/10/15 01:44:19;;;;;;;13.57;4.13;;;;;;;;;;6244853;28;20064;-63
2023/10/15 01:47:28;;;;;;;11.00;3.83;;;;;;;;;;6243631;28;20045;-64
2023/10/15 01:50:33;;;;;;;14.90;4.20;;;;;;;;;;6243634;28;20412;-63
2023/10/15 01:53:39;;;;;;;14.00;3.90;;;;;;;;;;6258288;28;20049;-63
2023/10/15 01:56:40;;;;;;;11.10;3.75;;;;;;;;;;6246524;28;20045;-64
2023/10/15 01:59:47;;;;;;;13.20;4.27;;;;;;;;;;6241901;28;20049;-65
2023/10/15 02:02:48;;;;;;;10.10;4.10;;;;;;;;;;6241968;28;20087;-64
2023/10/15 02:05:54;;;;;;;10.23;3.53;;;;;;;;;;6242864;28;20076;-64
2023/10/15 02:08:56;;;;;;;14.20;4.13;;;;;;;;;;6244237;28;20128;-65
2023/10/15 02:11:57;;;;;;;11.70;4.03;;;;;;;;;;6242717;28;20037;-64
2023/10/15 02:14:59;;;;;;;12.98;4.65;;;;;;;;;;6242679;28;20056;-64
2023/10/15 02:17:59;;;;;;;15.32;4.10;;;;;;;;;;6243768;28;20071;-63
2023/10/15 02:24:08;;;;;;;12.02;3.50;;;;;;;;;;6247954;28;20069;-64
2023/10/15 02:27:09;;;;;;;13.63;3.70;;;;;;;;;;6243768;28;20152;-64
2023/10/15 02:30:12;;;;;;;15.52;3.53;;;;;;;;;;6243418;28;20042;-64
2023/10/15 02:33:18;;;;;;;10.98;3.40;;;;;;;;;;6241977;28;20132;-64
2023/10/15 02:36:23;;;;;;;14.32;3.38;;;;;;;;;;6242798;28;20063;-64
2023/10/15 02:39:24;;;;;;;13.65;3.20;;;;;;;;;;6243904;28;20034;-64
2023/10/15 02:42:31;;;;;;;8.80;3.25;;;;;;;;;;6240762;28;20072;-64
2023/10/15 02:45:43;;;;;;;14.82;3.20;;;;;;;;;;6242197;28;20084;-64
2023/10/15 02:48:44;;;;;;;13.27;3.10;;;;;;;;;;6244994;28;20049;-64
2023/10/15 02:51:48;;;;;;;14.20;3.60;;;;;;;;;;6252646;28;20092;-64
2023/10/15 02:54:49;;;;;;;14.23;3.97;;;;;;;;;;6242790;28;20293;-64
2023/10/15 02:57:51;;;;;;;13.77;3.67;;;;;;;;;;6244680;28;20056;-63
2023/10/15 03:00:53;;;;;;;;;;;;;;;;;;6243764;28;20377;-62
2023/10/15 03:03:55;;;;;;;11.90;3.35;;;;;;;;;;6240464;28;19994;-64
2023/10/15 03:06:57;;;;;;;13.95;3.35;;;;;;;;;;6241965;28;20046;-63
2023/10/15 03:09:58;;;;;;;13.13;3.78;;;;;;;;;;6241097;28;20053;-64
2023/10/15 03:12:59;;;;;;;10.07;3.03;;;;;;;;;;6240925;28;20426;-64
2023/10/15 03:16:07;;;;;;;13.75;3.15;;;;;;;;;;6241819;28;20048;-63
2023/10/15 03:19:18;;;;;;;10.30;2.88;;;;;;;;;;6242521;28;20041;-63
2023/10/15 03:22:22;;;;;;;13.27;2.85;;;;;;;;;;6242236;28;20057;-63
2023/10/15 03:25:26;;;;;;;13.68;2.90;;;;;;;;;;6243852;28;20913;-64
2023/10/15 03:28:26;;;;;;;;;;;;;;;;;;6248511;28;20497;-64
2023/10/15 03:31:27;;;;;;;13.77;3.55;;;;;;;;;;6247455;28;19959;-64
2023/10/15 03:34:28;;;;;;;11.73;3.40;;;;;;;;;;6245853;28;20041;-64
2023/10/15 03:37:28;;;;;;;12.85;3.03;;;;;;;;;;6247249;28;20050;-65
2023/10/15 03:40:44;;;;;;;11.23;2.97;;;;;;;;;;6247429;28;20037;-63
2023/10/15 03:43:46;;;;;;;10.38;3.42;;;;;;;;;;6245064;28;20045;-64
2023/10/15 03:46:47;;;;;;;8.95;2.80;;;;;;;;;;6244854;28;20045;-64
2023/10/15 03:49:51;;;;;;;13.73;3.08;;;;;;;;;;6246807;28;20045;-64
2023/10/15 03:52:51;;;;;;;10.25;3.22;;;;;;;;;;6254350;28;20600;-64
2023/10/15 03:55:55;;;;;;;11.45;3.00;;;;;;;;;;6250024;28;20041;-64
2023/10/15 03:58:55;;;;;;;19.67;3.65;;;;;;;;;;6247320;28;20099;-63
2023/10/15 04:01:56;;;;;;;7.97;2.47;;;;;;;;;;6246702;28;20172;-63
2023/10/15 04:05:12;;;;;;;8.25;2.58;;;;;;;;;;6246107;28;20041;-64
2023/10/15 04:08:18;;;;;;;9.50;2.80;;;;;;;;;;6245548;28;20045;-64
2023/10/15 04:11:29;;;;;;;12.88;2.80;;;;;;;;;;6244406;28;20119;-64
2023/10/15 04:14:31;;;;;;;9.45;2.95;;;;;;;;;;6245519;28;20042;-64
2023/10/15 04:17:31;;;;;;;11.48;2.80;;;;;;;;;;6244746;28;20534;-64
2023/10/15 04:20:35;;;;;;;14.10;3.35;;;;;;;;;;6245832;28;20049;-64
2023/10/15 04:23:36;;;;;;;12.50;3.03;;;;;;;;;;6246685;28;20045;-63
2023/10/15 04:26:48;;;;;;;12.82;3.47;;;;;;;;;;6246252;28;20049;-64
2023/10/15 04:29:51;;;;;;;13.95;3.33;;;;;;;;;;6244383;28;20041;-63
2023/10/15 04:32:52;;;;;;;12.13;3.35;;;;;;;;;;6244738;28;20053;-63
2023/10/15 04:35:56;;;;;;;15.70;2.90;;;;;;;;;;6245516;28;20041;-63
2023/10/15 04:39:11;;;;;;;12.38;3.20;;;;;;;;;;6244755;28;20044;-63
2023/10/15 04:42:20;;;;;;;11.48;2.58;;;;;;;;;;6245173;28;20506;-63
2023/10/15 04:45:21;;;;;;;12.48;3.00;;;;;;;;;;6244993;28;20051;-63
2023/10/15 04:48:32;;;;;;;13.13;3.00;;;;;;;;;;6244532;28;20420;-62
2023/10/15 04:51:42;;;;;;;11.18;2.92;;;;;;;;;;6244998;28;20045;-63
2023/10/15 04:54:43;;;;;;;7.28;2.25;;;;;;;;;;6249727;28;20048;-63
2023/10/15 04:57:46;;;;;;;11.43;2.80;;;;;;;;;;6254047;28;20079;-63
2023/10/15 05:00:48;;;;;;;7.57;2.65;;;;;;;;;;6244265;28;20046;-64
2023/10/15 05:03:48;;;;;;;15.18;2.63;;;;;;;;;;6244934;28;20167;-64
2023/10/15 05:06:49;;;;;;;9.05;2.47;;;;;;;;;;6243098;28;20495;-63
2023/10/15 05:09:51;;;;;;;6.90;2.25;;;;;;;;;;6244701;28;20456;-64
2023/10/15 05:12:51;;;;;;;8.45;2.65;;;;;;;;;;6257630;28;20489;-63
2023/10/15 05:15:52;;;;;;;8.40;2.33;;;;;;;;;;6256619;28;20064;-60
2023/10/15 05:18:52;;;;;;;9.57;2.47;;;;;;;;;;6243463;28;20049;-61
2023/10/15 05:21:53;;;;;;;10.95;2.67;;;;;;;;;;6243745;28;20073;-60
2023/10/15 05:24:54;;;;;;;8.60;2.30;;;;;;;;;;6243654;28;20052;-61
2023/10/15 05:27:55;;;;;;;8.87;3.37;;;;;;;;;;6244472;28;20041;-63
2023/10/15 05:30:58;;;;;;;10.27;2.33;;;;;;;;;;6241447;28;20479;-64
2023/10/15 05:33:58;;;;;;;11.43;2.72;;;;;;;;;;6241409;28;20049;-63
2023/10/15 05:36:59;;;;;;;9.00;2.35;;;;;;;;;;6240934;28;20076;-62
2023/10/15 05:40:00;;;;;;;14.57;3.15;;;;;;;;;;6244846;28;20525;-63
2023/10/15 05:43:01;;;;;;;8.80;1.83;;;;;;;;;;6240501;28;20164;-62
2023/10/15 05:46:02;;;;;;;11.75;2.50;;;;;;;;;;6255216;28;20147;-63
2023/10/15 05:49:02;;;;;;;8.70;2.08;;;;;;;;;;6243230;28;20056;-63
2023/10/15 05:52:06;;;;;;;7.13;2.30;;;;;;;;;;6246817;28;20170;-67
2023/10/15 05:55:07;;;;;;;11.38;2.60;;;;;;;;;;6249652;28;20085;-62
2023/10/15 05:58:08;;;;;;;10.30;2.43;;;;;;;;;;6256220;28;20045;-62
2023/10/15 06:01:08;;;;;;;11.15;2.70;;;;;;;;;;6265819;28;20083;-61
2023/10/15 06:04:09;;;;;;;15.65;3.55;;;;;;;;;;6253566;28;20076;-63
2023/10/15 06:07:10;;;;;;;8.15;2.20;;;;;;;;;;6267032;28;20048;-62
2023/10/15 06:10:11;;;;;;;8.18;2.30;;;;;;;;;;6242708;28;20605;-62
2023/10/15 06:13:12;;;;;;;10.63;2.70;;;;;;;;;;6242968;28;20046;-61
2023/10/15 06:16:14;;;;;;;8.57;2.50;;;;;;;;;;6242938;28;20124;-62
2023/10/15 06:19:16;;;;;;;10.82;2.28;;;;;;;;;;6242848;28;20385;-61
2023/10/15 06:22:17;;;;;;;9.50;2.35;;;;;;;;;;6241991;28;20083;-63
2023/10/15 06:25:18;;;;;;;8.68;2.35;;;;;;;;;;6242508;28;20037;-62
2023/10/15 06:28:20;;;;;;;10.30;2.38;;;;;;;;;;6243259;28;20037;-62
2023/10/15 06:31:20;;;;;;;11.20;2.80;;;;;;;;;;6241895;28;20048;-62
2023/10/15 06:34:22;;;;;;;15.27;2.47;;;;;;;;;;6240437;28;20045;-62
2023/10/15 06:37:22;;;;;;;11.48;2.03;;;;;;;;;;6242621;28;20053;-62
2023/10/15 06:40:24;;;;;;;10.93;2.40;;;;;;;;;;6242165;28;20099;-62
2023/10/15 06:43:25;;;;;;;10.32;2.25;;;;;;;;;;6242003;28;20573;-61
2023/10/15 06:46:26;;;;;;;11.68;2.72;;;;;;;;;;6242312;28;20045;-62
2023/10/15 06:49:26;;;;;;;17.15;2.60;;;;;;;;;;6241281;28;20056;-63
2023/10/15 06:52:27;;;;;;;11.13;3.15;;;;;;;;;;6240499;28;20362;-61
2023/10/15 06:55:27;;;;;;;8.65;2.30;;;;;;;;;;6242161;28;20053;-62
2023/10/15 06:58:28;;;;;;;11.38;2.58;;;;;;;;;;6242558;28;20077;-61
2023/10/15 07:01:30;;;;;;;13.40;2.67;;;;;;;;;;6247153;28;20049;-63
2023/10/15 07:04:32;;;;;;;10.75;2.10;;;;;;;;;;6246779;28;20129;-62
2023/10/15 07:07:33;;;;;;;11.32;2.67;;;;;;;;;;6247708;28;20045;-63
2023/10/15 07:10:36;;;;;;;13.23;3.37;;;;;;;;;;6245387;28;20456;-62
2023/10/15 07:13:37;;;;;;;13.77;2.55;;;;;;;;;;6245258;28;20148;-62
2023/10/15 07:16:40;;;;;;;8.60;2.42;;;;;;;;;;6246167;28;20865;-62
2023/10/15 07:19:41;;;;;;;9.18;1.73;;;;;;;;;;6245511;28;20103;-62
2023/10/15 07:22:43;;;;;;;8.30;2.15;;;;;;;;;;6247048;28;20044;-63
2023/10/15 07:25:44;;;;;;;14.07;2.03;;;;;;;;;;6247099;28;20382;-62
2023/10/15 07:28:45;;;;;;;6.82;1.77;;;;;;;;;;6246778;28;20451;-62
2023/10/15 07:31:46;;;;;;;7.70;1.75;;;;;;;;;;6245440;28;20041;-63
2023/10/15 07:34:46;;;;;;;8.87;1.90;;;;;;;;;;6247295;28;20164;-62
2023/10/15 07:37:51;;;;;;;14.70;2.10;;;;;;;;;;6246789;28;20596;-60
2023/10/15 07:40:53;;;;;;;10.05;2.33;;;;;;;;;;6244103;28;20484;-62
2023/10/15 07:43:53;;;;;;;10.88;1.95;;;;;;;;;;6246263;28;20041;-60
2023/10/15 07:46:54;;;;;;;12.90;1.85;;;;;;;;;;6247329;28;20122;-62
2023/10/15 07:49:54;;;;;;;12.25;2.00;;;;;;;;;;6245573;28;20061;-62
2023/10/15 07:52:56;;;;;;;7.47;2.33;;;;;;;;;;6246834;28;20049;-62
2023/10/15 07:55:56;;;;;;;8.13;2.28;;;;;;;;;;6246622;28;20045;-62
2023/10/15 07:58:57;;;;;;;7.30;1.88;;;;;;;;;;6246285;28;20831;-62
2023/10/15 08:01:59;;;;;;;6.22;1.50;;;;;;;;;;6244840;28;20415;-62
2023/10/15 08:05:00;;;;;;;;;;;;;;;;;;6245891;28;20067;-62
2023/10/15 08:08:01;;;;;;;8.82;1.95;;;;;;;;;;6246173;28;19921;-62
2023/10/15 08:11:02;;;;;;;12.50;1.90;;;;;;;;;;6248809;28;20195;-61
2023/10/15 08:14:02;;;;;;;9.85;2.13;;;;;;;;;;6248724;28;20293;-61
2023/10/15 08:17:03;;;;;;;14.70;2.20;;;;;;;;;;6254951;28;20053;-61
2023/10/15 08:20:04;;;;;;;9.88;1.90;;;;;;;;;;6256280;28;20057;-62
2023/10/15 08:23:05;;;;;;;9.05;1.70;;;;;;;;;;6257314;28;20083;-60
2023/10/15 08:26:06;;;;;;;9.18;1.95;;;;;;;;;;6256593;28;20518;-60
2023/10/15 08:29:09;;;;;;;9.10;1.58;;;;;;;;;;6257914;28;20049;-63
2023/10/15 08:32:20;;;;;;;11.48;2.35;;;;;;;;;;6257035;28;20081;-63
2023/10/15 08:35:20;;;;;;;5.88;1.60;;;;;;;;;;6255551;28;20472;-62
2023/10/15 08:38:22;;;;;;;10.40;2.25;;;;;;;;;;6259316;28;20044;-63
2023/10/15 08:41:25;;;;;;;;;;;;;;;;;;6255186;28;20442;-63
2023/10/15 08:44:26;;;;;;;8.70;1.83;;;;;;;;;;6255072;28;19925;-63
2023/10/15 08:47:28;;;;;;;6.60;1.98;;;;;;;;;;6258551;28;20041;-61
2023/10/15 08:50:29;;;;;;;7.10;1.80;;;;;;;;;;6258972;28;20071;-61
2023/10/15 08:53:31;;;;;;;8.63;2.05;;;;;;;;;;6257612;28;20051;-62
2023/10/15 08:56:33;;;;;;;11.00;3.00;;;;;;;;;;6256826;28;20542;-62
2023/10/15 08:59:35;;;;;;;;;;;;;;;;;;6258155;28;20045;-63
2023/10/15 09:02:36;;;;;;;10.27;2.63;;;;;;;;;;6257734;28;19929;-63
2023/10/15 09:05:37;;;;;;;7.95;2.83;;;;;;;;;;6254472;28;20052;-62
2023/10/15 09:08:41;;;;;;;5.93;1.60;;;;;;;;;;6255589;28;20171;-62
2023/10/15 09:11:42;;;;;;;9.23;1.90;;;;;;;;;;6256622;28;20090;-63
2023/10/15 09:14:45;;;;;;;8.13;2.30;;;;;;;;;;6255589;28;20083;-63
2023/10/15 09:17:56;;;;;;;12.30;2.42;;;;;;;;;;6254226;28;20322;-61
2023/10/15 09:20:58;;;;;;;10.95;2.05;;;;;;;;;;6257329;28;20441;-58
2023/10/15 09:24:02;;;;;;;8.93;2.13;;;;;;;;;;6251818;28;20446;-60
2023/10/15 09:27:05;;;;;;;8.75;2.08;;;;;;;;;;6256466;28;20049;-62
2023/10/15 09:30:18;;;;;;;10.02;2.30;;;;;;;;;;6256819;28;20067;-60
2023/10/15 09:33:27;;;;;;;12.00;2.08;;;;;;;;;;6254422;28;20535;-61
2023/10/15 09:36:36;;;;;;;8.05;3.50;;;;;;;;;;6254578;28;20090;-60
2023/10/15 09:39:38;;;;;;;9.82;2.33;;;;;;;;;;6255571;28;20057;-60
2023/10/15 09:42:39;;;;;;;7.82;2.42;;;;;;;;;;6255486;28;20048;-62
2023/10/15 09:45:42;;;;;;;10.65;2.88;;;;;;;;;;6252974;28;20049;-64
2023/10/15 09:48:43;;;;;;;10.57;2.60;;;;;;;;;;6255188;28;20163;-63
2023/10/15 09:51:47;;;;;;;11.13;2.28;;;;;;;;;;6255848;28;21059;-61
2023/10/15 09:54:48;;;;;;;8.68;3.10;;;;;;;;;;6254766;28;20048;-64
2023/10/15 09:58:10;;;;;;;8.75;2.90;;;;;;;;;;6255054;28;20841;-62
2023/10/15 10:01:28;;;;;;;9.65;2.83;;;;;;;;;;6255378;28;20704;-64
2023/10/15 10:04:51;;;;;;;11.85;2.60;;;;;;;;;;6254778;28;20048;-64
2023/10/15 10:08:16;;;;;;;6.85;2.50;;;;;;;;;;6254645;28;20558;-65
2023/10/15 10:11:45;;;;;;;11.50;2.65;;;;;;;;;;6255411;28;20110;-68
2023/10/15 10:14:58;;;;;;;9.27;3.00;;;;;;;;;;6233940;28;20074;-65
2023/10/15 10:18:00;;;;;;;18.90;3.33;;;;;;;;;;6254946;28;20104;-62
2023/10/15 10:21:13;;;;;;;12.57;3.10;;;;;;;;;;6255025;28;20055;-62
2023/10/15 10:24:16;;;;;;;12.73;4.53;;;;;;;;;;6253305;28;20049;-61
2023/10/15 10:27:17;;;;;;;15.85;4.20;;;;;;;;;;6255159;28;20075;-64
2023/10/15 10:30:27;;;;;;;15.13;3.35;;;;;;;;;;6255797;28;20048;-69
2023/10/15 10:33:46;;;;;;;12.40;3.38;;;;;;;;;;6254644;28;20048;-66
2023/10/15 10:36:52;;;;;;;11.13;3.83;;;;;;;;;;6254811;28;20053;-67
2023/10/15 10:39:53;;;;;;;11.65;3.30;;;;;;;;;;6254735;28;20499;-66
2023/10/15 10:43:04;;;;;;;15.10;3.40;;;;;;;;;;6255792;28;20053;-63
2023/10/15 10:46:06;;;;;;;13.68;4.43;;;;;;;;;;6253410;28;20070;-78
2023/10/15 10:49:13;;;;;;;10.80;3.22;;;;;;;;;;6255107;28;20076;-59
2023/10/15 10:52:23;;;;;;;13.90;3.38;;;;;;;;;;6255198;28;20471;-58
2023/10/15 10:55:34;;;;;;;11.60;3.50;;;;;;;;;;6252281;28;20439;-57
2023/10/15 10:58:37;;;;;;;16.17;4.28;;;;;;;;;;6254823;28;20236;-57
2023/10/15 11:01:39;;;;;;;11.90;3.35;;;;;;;;;;6255858;28;20053;-59
2023/10/15 11:04:41;;;;;;;10.40;3.15;;;;;;;;;;6252619;28;20484;-58
2023/10/15 11:07:41;;;;;;;10.93;3.20;;;;;;;;;;6254258;28;20574;-57
2023/10/15 11:10:45;;;;;;;12.80;3.50;;;;;;;;;;6237884;28;20094;-57
2023/10/15 11:13:47;;;;;;;6.43;2.50;;;;;;;;;;6255161;28;20070;-54
2023/10/15 11:16:50;;;;;;;10.35;2.55;;;;;;;;;;6254468;28;20049;-59
2023/10/15 11:19:51;;;;;;;13.43;2.22;;;;;;;;;;6255212;28;20069;-59
2023/10/15 11:22:51;;;;;;;13.60;3.65;;;;;;;;;;6256845;28;20065;-58
2023/10/15 11:25:56;;;;;;;9.65;3.03;;;;;;;;;;6254139;28;20462;-58
2023/10/15 11:28:57;;;;;;;10.93;2.40;;;;;;;;;;6253000;28;20458;-58
2023/10/15 11:31:58;;;;;;;10.20;2.35;;;;;;;;;;6254793;28;20061;-56
2023/10/15 11:35:00;;;;;;;11.83;2.70;;;;;;;;;;6252383;28;20172;-57
2023/10/15 11:38:10;;;;;;;10.00;2.97;;;;;;;;;;6254055;28;20048;-63
2023/10/15 11:41:12;;;;;;;13.27;2.50;;;;;;;;;;6251984;28;20049;-59
2023/10/15 11:44:12;;;;;;;14.57;2.27;;;;;;;;;;6253417;28;20081;-56
2023/10/15 11:47:16;;;;;;;10.85;2.55;;;;;;;;;;6258305;28;20144;-58
2023/10/15 11:50:19;;;;;;;8.45;2.28;;;;;;;;;;6258401;28;20131;-58
2023/10/15 11:53:20;;;;;;;10.60;2.78;;;;;;;;;;6259226;28;20454;-58
2023/10/15 11:56:24;;;;;;;12.80;3.00;;;;;;;;;;6259503;28;20045;-59
2023/10/15 11:59:27;;;;;;;16.48;3.13;;;;;;;;;;6259160;28;20056;-56
2023/10/15 12:02:28;;;;;;;10.25;2.50;;;;;;;;;;6259415;28;20041;-58
2023/10/15 12:05:31;;;;;;;10.50;2.00;;;;;;;;;;6257819;28;20213;-58
2023/10/15 12:08:31;;;;;;;16.05;2.70;;;;;;;;;;6240753;28;20179;-59
2023/10/15 12:11:33;;;;;;;10.45;2.28;;;;;;;;;;6256802;28;20620;-56
2023/10/15 12:14:34;;;;;;;14.73;2.70;;;;;;;;;;6257872;28;20052;-58
2023/10/15 12:17:35;;;;;;;15.18;3.65;;;;;;;;;;6255204;28;20316;-58
2023/10/15 12:20:36;;;;;;;11.25;2.70;;;;;;;;;;6256941;28;20055;-57
2023/10/15 12:23:37;;;;;;;10.03;2.33;;;;;;;;;;6256541;28;20053;-59
2023/10/15 12:26:37;;;;;;;10.63;2.55;;;;;;;;;;6254467;28;20486;-60
2023/10/15 12:29:38;;;;;;;11.95;2.25;;;;;;;;;;6255993;28;20103;-58
2023/10/15 12:32:39;;;;;;;8.40;2.63;;;;;;;;;;6256051;28;20435;-55
2023/10/15 12:35:40;;;;;;;9.20;2.20;;;;;;;;;;6255659;28;20045;-56
2023/10/15 12:38:42;;;;;;;12.95;2.55;;;;;;;;;;6257389;28;20061;-58
2023/10/15 12:41:43;;;;;;;10.50;2.35;;;;;;;;;;6255553;28;20173;-62
2023/10/15 12:44:46;;;;;;;9.75;2.50;;;;;;;;;;6255154;28;20368;-63
2023/10/15 12:47:48;;;;;;;12.82;2.35;;;;;;;;;;6256483;28;20432;-57
2023/10/15 12:50:49;;;;;;;10.10;2.03;;;;;;;;;;6257193;28;20131;-58
2023/10/15 12:53:50;;;;;;;10.77;2.40;;;;;;;;;;6254060;28;20044;-57
2023/10/15 12:56:50;;;;;;;9.23;2.55;;;;;;;;;;6237566;28;20045;-56
2023/10/15 12:59:51;;;;;;;10.35;2.13;;;;;;;;;;6252329;28;20091;-58
2023/10/15 13:02:53;;;;;;;11.05;2.03;;;;;;;;;;6236015;28;20713;-57
2023/10/15 13:05:54;;;;;;;11.77;2.33;;;;;;;;;;6254119;28;20098;-57
2023/10/15 13:08:55;;;;;;;12.27;2.33;;;;;;;;;;6252711;28;20356;-59
2023/10/15 13:11:56;;;;;;;10.80;2.92;;;;;;;;;;6257186;28;20033;-56
2023/10/15 13:14:58;;;;;;;11.00;2.25;;;;;;;;;;6253861;28;20443;-55
2023/10/15 13:17:59;;;;;;;11.00;2.65;;;;;;;;;;6253838;28;20106;-57
2023/10/15 13:20:59;;;;;;;11.60;2.55;;;;;;;;;;6252625;28;20053;-58
2023/10/15 13:24:00;;;;;;;15.35;3.20;;;;;;;;;;6253921;28;20558;-56
2023/10/15 13:27:01;;;;;;;11.88;3.05;;;;;;;;;;6253575;28;20048;-58
2023/10/15 13:30:03;;;;;;;6.00;1.63;;;;;;;;;;6253123;28;20044;-59
2023/10/15 13:33:04;;;;;;;11.07;3.50;;;;;;;;;;6254291;28;20052;-58
2023/10/15 13:36:05;;;;;;;10.10;2.00;;;;;;;;;;6253425;28;20414;-56
2023/10/15 13:39:05;;;;;;;9.40;1.58;;;;;;;;;;6253832;28;20052;-53
2023/10/15 13:42:06;;;;;;;6.50;1.88;;;;;;;;;;6252966;28;20450;-55
2023/10/15 13:45:08;;;;;;;7.82;1.95;;;;;;;;;;6253962;28;20053;-57
2023/10/15 13:48:10;;;;;;;12.05;2.33;;;;;;;;;;6259134;28;20045;-57
2023/10/15 13:51:11;;;;;;;9.13;2.03;;;;;;;;;;6253207;28;20048;-59
2023/10/15 13:54:13;;;;;;;11.27;2.40;;;;;;;;;;6233372;28;20476;-57
2023/10/15 13:57:13;;;;;;;7.80;2.30;;;;;;;;;;6253780;28;20045;-57
2023/10/15 14:00:19;;;;;;;14.63;2.30;;;;;;;;;;6254421;28;20483;-59
2023/10/15 14:03:20;;;;;;;9.40;2.10;;;;;;;;;;6251519;28;20099;-56
2023/10/15 14:06:21;;;;;;;13.82;2.03;;;;;;;;;;6253012;28;20053;-60
2023/10/15 14:09:23;;;;;;;6.78;1.90;;;;;;;;;;6252733;28;20052;-61
2023/10/15 14:12:25;;;;;;;7.28;1.67;;;;;;;;;;6234458;28;20052;-59
2023/10/15 14:15:26;;;;;;;6.75;1.88;;;;;;;;;;6251998;28;20461;-54
2023/10/15 14:18:30;;;;;;;7.90;2.13;;;;;;;;;;6253474;28;20051;-59
2023/10/15 14:21:30;;;;;;;11.07;1.80;;;;;;;;;;6253156;28;20489;-56
2023/10/15 14:24:31;;;;;;;9.60;1.95;;;;;;;;;;6251764;28;20037;-58
2023/10/15 14:27:33;;;;;;;9.52;2.30;;;;;;;;;;6253524;28;20052;-61
2023/10/15 14:30:35;;;;;;;12.20;2.60;;;;;;;;;;6253314;28;20099;-61
2023/10/15 14:33:37;;;;;;;9.43;2.10;;;;;;;;;;6249177;28;20048;-61
2023/10/15 14:36:41;;;;;;;10.07;2.55;;;;;;;;;;6251294;28;20059;-58
2023/10/15 14:39:42;;;;;;;7.00;2.28;;;;;;;;;;6252227;28;20053;-60
2023/10/15 14:42:43;;;;;;;6.07;1.65;;;;;;;;;;6253694;28;20096;-56
2023/10/15 14:45:43;;;;;;;8.95;1.63;;;;;;;;;;6250432;28;20070;-61
2023/10/15 14:48:44;;;;;;;9.18;2.15;;;;;;;;;;6253655;28;20823;-59
2023/10/15 14:51:44;;;;;;;9.60;2.00;;;;;;;;;;6251971;28;20041;-60
2023/10/15 14:54:45;;;;;;;16.42;3.03;;;;;;;;;;6251383;28;21000;-59
2023/10/15 14:57:46;;;;;;;10.10;2.28;;;;;;;;;;6252908;28;20052;-59
2023/10/15 15:00:47;;;;;;;7.47;2.38;;;;;;;;;;6252986;28;20609;-61
2023/10/15 15:03:48;;;;;;;7.57;2.05;;;;;;;;;;6250327;28;20094;-59
2023/10/15 15:06:48;;;;;;;9.20;2.17;;;;;;;;;;6234909;28;20060;-60
2023/10/15 15:09:49;;;;;;;9.82;2.15;;;;;;;;;;6253696;28;20049;-69
2023/10/15 15:12:50;;;;;;;13.10;2.65;;;;;;;;;;6253685;28;20160;-69
2023/10/15 15:15:50;;;;;;;9.10;2.20;;;;;;;;;;6253867;28;20056;-68
2023/10/15 15:18:51;;;;;;;7.97;2.22;;;;;;;;;;6251893;28;20063;-67
2023/10/15 15:21:52;;;;;;;10.45;2.60;;;;;;;;;;6255941;28;20722;-65
2023/10/15 15:24:54;;;;;;;11.25;2.70;;;;;;;;;;6256466;28;20507;-67
2023/10/15 15:27:54;;;;;;;10.98;2.80;;;;;;;;;;6260692;28;20041;-63
2023/10/15 15:30:55;;;;;;;10.43;2.53;;;;;;;;;;6258975;28;20495;-59
2023/10/15 15:33:56;;;;;;;8.65;2.40;;;;;;;;;;6257743;28;20045;-63
2023/10/15 15:36:58;;;;;;;7.43;2.22;;;;;;;;;;6259964;28;20045;-58
2023/10/15 15:40:04;;;;;;;9.00;2.50;;;;;;;;;;6258679;28;20053;-58
2023/10/15 15:43:05;;;;;;;9.52;3.30;;;;;;;;;;6245691;28;20099;-61
2023/10/15 15:46:12;;;;;;;10.70;2.90;;;;;;;;;;6257906;28;20460;-60
2023/10/15 15:49:13;;;;;;;10.20;3.30;;;;;;;;;;6261076;28;20052;-57
2023/10/15 15:52:14;;;;;;;16.25;3.72;;;;;;;;;;6257445;28;20636;-57
2023/10/15 15:55:14;;;;;;;12.68;3.95;;;;;;;;;;6256368;28;20118;-60
2023/10/15 15:58:15;;;;;;;11.70;5.15;;;;;;;;;;6241808;28;20045;-59
2023/10/15 16:01:22;;;;;;;11.98;4.22;;;;;;;;;;6259313;28;20051;-61
2023/10/15 16:04:23;;;;;;;10.70;4.00;;;;;;;;;;6256907;28;20049;-57
2023/10/15 16:07:24;;;;;;;11.52;3.80;;;;;;;;;;6258207;28;20526;-62
2023/10/15 16:10:25;;;;;;;12.25;4.70;;;;;;;;;;6254997;28;20045;-59
2023/10/15 16:13:26;;;;;;;15.27;4.90;;;;;;;;;;6254531;28;20048;-59
2023/10/15 16:16:27;;;;;;;16.00;4.95;;;;;;;;;;6255106;28;20485;-61
2023/10/15 16:19:27;;;;;;;11.48;3.83;;;;;;;;;;6256465;28;20083;-58
2023/10/15 16:22:28;;;;;;;20.10;4.13;;;;;;;;;;6256064;28;20045;-52
2023/10/15 16:25:28;;;;;;;14.52;4.18;;;;;;;;;;6254544;28;20041;-51
2023/10/15 16:28:29;;;;;;;10.57;3.92;;;;;;;;;;6255308;28;20045;-52
2023/10/15 16:31:30;;;;;;;14.25;4.82;;;;;;;;;;6256285;28;20504;-59
2023/10/15 16:34:32;;;;;;;14.48;5.28;;;;;;;;;;6253613;28;20040;-56
2023/10/15 16:37:33;;;;;;;12.60;4.75;;;;;;;;;;6257002;28;20090;-56
2023/10/15 16:40:33;;;;;;;10.50;3.38;;;;;;;;;;6255877;28;20869;-58
2023/10/15 16:43:34;;;;;;;15.52;4.07;;;;;;;;;;6254234;28;20088;-57
2023/10/15 16:46:34;;;;;;;11.27;3.45;;;;;;;;;;6255559;28;20072;-59
2023/10/15 16:49:35;;;;;;;16.00;3.10;;;;;;;;;;6255432;28;20278;-59
2023/10/15 16:52:36;;;;;;;10.80;3.58;;;;;;;;;;6255108;28;20053;-58
2023/10/15 16:55:37;;;;;;;14.00;3.57;;;;;;;;;;6253877;28;20369;-59
2023/10/15 16:58:38;;;;;;;10.23;3.35;;;;;;;;;;6255892;28;20529;-61
2023/10/15 17:01:38;;;;;;;16.80;6.13;;;;;;;;;;6254708;28;20527;-59
2023/10/15 17:04:39;;;;;;;16.58;4.25;;;;;;;;;;6252993;28;20060;-54
2023/10/15 17:07:41;;;;;;;15.73;4.55;;;;;;;;;;6256223;28;20060;-60
2023/10/15 17:10:49;;;;;;;13.50;3.90;;;;;;;;;;6254817;28;20481;-61
2023/10/15 17:13:50;;;;;;;13.32;4.60;;;;;;;;;;6254620;28;20049;-58
2023/10/15 17:16:51;;;;;;;13.95;4.20;;;;;;;;;;6255798;28;20072;-59
2023/10/15 17:19:52;;;;;;;11.73;3.60;;;;;;;;;;6255987;28;20063;-56
2023/10/15 17:22:53;;;;;;;12.63;3.63;;;;;;;;;;6256372;28;20498;-58
2023/10/15 17:25:54;;;;;;;9.52;3.90;;;;;;;;;;6254852;28;20110;-60
2023/10/15 17:28:55;;;;;;;11.65;3.88;;;;;;;;;;6254683;28;20135;-61
2023/10/15 17:31:57;;;;;;;10.48;4.00;;;;;;;;;;6255858;28;20056;-57
2023/10/15 17:34:58;;;;;;;14.00;4.10;;;;;;;;;;6253284;28;20052;-59
2023/10/15 17:37:59;;;;;;;17.13;3.80;;;;;;;;;;6255788;28;20571;-60
2023/10/15 17:41:01;;;;;;;13.48;3.53;;;;;;;;;;6254119;28;20060;-59
2023/10/15 17:44:02;;;;;;;13.40;3.67;;;;;;;;;;6253900;28;20040;-56
2023/10/15 17:47:02;;;;;;;13.57;4.07;;;;;;;;;;6251749;28;20037;-57
2023/10/15 17:50:03;;;;;;;9.98;3.50;;;;;;;;;;6251404;28;20102;-60
2023/10/15 17:53:05;;;;;;;12.60;3.88;;;;;;;;;;6254085;28;20102;-59
2023/10/15 17:56:06;;;;;;;12.55;3.78;;;;;;;;;;6254373;28;20063;-57
2023/10/15 17:59:07;;;;;;;11.27;3.72;;;;;;;;;;6254365;28;20052;-54
2023/10/15 18:02:07;;;;;;;13.65;3.67;;;;;;;;;;6254031;28;20045;-52
2023/10/15 18:05:08;;;;;;;11.95;3.85;;;;;;;;;;6255873;28;20045;-54
2023/10/15 18:08:09;;;;;;;11.65;4.82;;;;;;;;;;6255713;28;20040;-60
2023/10/15 18:11:11;;;;;;;11.05;3.67;;;;;;;;;;6255685;28;20053;-61
2023/10/15 18:14:12;;;;;;;9.95;3.75;;;;;;;;;;6255832;28;20438;-57